sensor_id;sensor_type;location;lat;lon;timestamp;P1;durP1;ratioP1;P2;durP2;ratioP2
12774;SDS011;6451;42.630;23.382;2024-02-21T00:00:57;8.30;;;6.30;;
12774;SDS011;6451;42.630;23.382;2024-02-21T00:03:27;6.77;;;5.83;;
12774;SDS011;6451;42.630;23.382;2024-02-21T00:05:56;7.50;;;6.40;;
12774;SDS011;6451;42.630;23.382;2024-02-21T00:08:22;6.87;;;5.83;;
12774;SDS011;6451;42.630;23.382;2024-02-21T00:10:50;6.63;;;5.80;;
12774;SDS011;6451;42.630;23.382;2024-02-21T00:13:17;6.83;;;6.00;;
12774;SDS011;6451;42.630;23.382;2024-02-21T00:15:46;6.93;;;5.73;;
12774;SDS011;6451;42.630;23.382;2024-02-21T00:18:13;6.07;;;5.47;;
12774;SDS011;6451;42.630;23.382;2024-02-21T00:20:40;8.63;;;5.73;;
12774;SDS011;6451;42.630;23.382;2024-02-21T00:23:07;6.10;;;5.40;;
12774;SDS011;6451;42.630;23.382;2024-02-21T00:25:34;7.33;;;5.70;;
12774;SDS011;6451;42.630;23.382;2024-02-21T00:28:03;6.83;;;5.43;;
12774;SDS011;6451;42.630;23.382;2024-02-21T00:30:31;6.60;;;5.53;;
12774;SDS011;6451;42.630;23.382;2024-02-21T00:33:00;6.00;;;5.40;;
12774;SDS011;6451;42.630;23.382;2024-02-21T00:35:27;6.57;;;5.87;;
12774;SDS011;6451;42.630;23.382;2024-02-21T00:37:54;7.17;;;5.77;;
12774;SDS011;6451;42.630;23.382;2024-02-21T00:40:22;6.73;;;5.93;;
12774;SDS011;6451;42.630;23.382;2024-02-21T00:42:49;6.30;;;5.70;;
12774;SDS011;6451;42.630;23.382;2024-02-21T00:45:16;6.83;;;6.13;;
12774;SDS011;6451;42.630;23.382;2024-02-21T00:47:43;8.10;;;6.30;;
12774;SDS011;6451;42.630;23.382;2024-02-21T00:50:13;6.63;;;5.93;;
12774;SDS011;6451;42.630;23.382;2024-02-21T00:52:40;6.93;;;5.67;;
12774;SDS011;6451;42.630;23.382;2024-02-21T00:55:08;6.30;;;5.50;;
12774;SDS011;6451;42.630;23.382;2024-02-21T00:57:35;6.73;;;6.03;;
12774;SDS011;6451;42.630;23.382;2024-02-21T01:00:02;6.63;;;5.80;;
12774;SDS011;6451;42.630;23.382;2024-02-21T01:02:33;5.83;;;5.23;;
12774;SDS011;6451;42.630;23.382;2024-02-21T01:05:01;6.57;;;5.70;;
12774;SDS011;6451;42.630;23.382;2024-02-21T01:07:32;6.50;;;5.80;;
12774;SDS011;6451;42.630;23.382;2024-02-21T01:09:58;6.10;;;5.50;;
12774;SDS011;6451;42.630;23.382;2024-02-21T01:12:25;7.17;;;5.87;;
12774;SDS011;6451;42.630;23.382;2024-02-21T01:14:54;7.47;;;6.03;;
12774;SDS011;6451;42.630;23.382;2024-02-21T01:17:21;6.00;;;5.40;;
12774;SDS011;6451;42.630;23.382;2024-02-21T01:19:47;5.90;;;5.30;;
12774;SDS011;6451;42.630;23.382;2024-02-21T01:22:14;6.33;;;5.60;;
12774;SDS011;6451;42.630;23.382;2024-02-21T01:24:44;7.03;;;5.83;;
12774;SDS011;6451;42.630;23.382;2024-02-21T01:27:11;6.73;;;6.03;;
12774;SDS011;6451;42.630;23.382;2024-02-21T01:29:38;6.23;;;5.43;;
12774;SDS011;6451;42.630;23.382;2024-02-21T01:32:06;6.63;;;5.93;;
12774;SDS011;6451;42.630;23.382;2024-02-21T01:34:33;7.07;;;5.73;;
12774;SDS011;6451;42.630;23.382;2024-02-21T01:37:00;6.63;;;5.93;;
12774;SDS011;6451;42.630;23.382;2024-02-21T01:39:29;6.93;;;6.03;;
12774;SDS011;6451;42.630;23.382;2024-02-21T01:41:58;6.90;;;6.20;;
12774;SDS011;6451;42.630;23.382;2024-02-21T01:44:26;6.90;;;6.20;;
12774;SDS011;6451;42.630;23.382;2024-02-21T01:46:53;7.17;;;6.20;;
12774;SDS011;6451;42.630;23.382;2024-02-21T01:49:20;7.40;;;6.57;;
12774;SDS011;6451;42.630;23.382;2024-02-21T01:51:49;7.37;;;6.03;;
12774;SDS011;6451;42.630;23.382;2024-02-21T01:54:17;8.03;;;6.70;;
12774;SDS011;6451;42.630;23.382;2024-02-21T01:56:46;7.57;;;6.50;;
12774;SDS011;6451;42.630;23.382;2024-02-21T01:59:16;8.93;;;7.00;;
12774;SDS011;6451;42.630;23.382;2024-02-21T02:01:45;8.03;;;6.77;;
12774;SDS011;6451;42.630;23.382;2024-02-21T02:04:14;8.00;;;7.17;;
12774;SDS011;6451;42.630;23.382;2024-02-21T02:06:41;8.80;;;7.07;;
12774;SDS011;6451;42.630;23.382;2024-02-21T02:09:10;8.00;;;6.70;;
12774;SDS011;6451;42.630;23.382;2024-02-21T02:11:40;10.00;;;7.50;;
12774;SDS011;6451;42.630;23.382;2024-02-21T02:14:05;9.30;;;7.83;;
12774;SDS011;6451;42.630;23.382;2024-02-21T02:16:34;9.07;;;7.87;;
12774;SDS011;6451;42.630;23.382;2024-02-21T02:19:02;9.07;;;7.77;;
12774;SDS011;6451;42.630;23.382;2024-02-21T02:21:32;11.33;;;8.70;;
12774;SDS011;6451;42.630;23.382;2024-02-21T02:24:06;10.00;;;8.30;;
12774;SDS011;6451;42.630;23.382;2024-02-21T02:26:33;11.60;;;9.57;;
12774;SDS011;6451;42.630;23.382;2024-02-21T02:29:01;12.37;;;10.13;;
12774;SDS011;6451;42.630;23.382;2024-02-21T02:31:28;11.50;;;9.97;;
12774;SDS011;6451;42.630;23.382;2024-02-21T02:33:55;11.90;;;9.83;;
12774;SDS011;6451;42.630;23.382;2024-02-21T02:36:21;11.50;;;10.30;;
12774;SDS011;6451;42.630;23.382;2024-02-21T02:38:48;13.30;;;10.47;;
12774;SDS011;6451;42.630;23.382;2024-02-21T02:41:16;11.67;;;9.13;;
12774;SDS011;6451;42.630;23.382;2024-02-21T02:43:45;11.83;;;10.17;;
12774;SDS011;6451;42.630;23.382;2024-02-21T02:46:12;13.60;;;11.53;;
12774;SDS011;6451;42.630;23.382;2024-02-21T02:48:39;12.50;;;10.70;;
12774;SDS011;6451;42.630;23.382;2024-02-21T02:51:06;13.03;;;11.07;;
12774;SDS011;6451;42.630;23.382;2024-02-21T02:53:33;13.33;;;10.87;;
12774;SDS011;6451;42.630;23.382;2024-02-21T02:56:00;12.87;;;11.30;;
12774;SDS011;6451;42.630;23.382;2024-02-21T02:58:29;13.00;;;10.47;;
12774;SDS011;6451;42.630;23.382;2024-02-21T03:00:56;13.97;;;11.10;;
12774;SDS011;6451;42.630;23.382;2024-02-21T03:03:24;12.67;;;11.00;;
12774;SDS011;6451;42.630;23.382;2024-02-21T03:05:51;13.43;;;11.33;;
12774;SDS011;6451;42.630;23.382;2024-02-21T03:08:18;12.67;;;11.07;;
12774;SDS011;6451;42.630;23.382;2024-02-21T03:10:46;12.77;;;10.90;;
12774;SDS011;6451;42.630;23.382;2024-02-21T03:13:13;12.97;;;11.13;;
12774;SDS011;6451;42.630;23.382;2024-02-21T03:15:42;13.07;;;10.87;;
12774;SDS011;6451;42.630;23.382;2024-02-21T03:18:09;14.07;;;11.57;;
12774;SDS011;6451;42.630;23.382;2024-02-21T03:20:36;12.83;;;11.43;;
12774;SDS011;6451;42.630;23.382;2024-02-21T03:23:03;12.03;;;10.70;;
12774;SDS011;6451;42.630;23.382;2024-02-21T03:25:30;13.03;;;10.80;;
12774;SDS011;6451;42.630;23.382;2024-02-21T03:27:57;12.60;;;10.40;;
12774;SDS011;6451;42.630;23.382;2024-02-21T03:30:24;12.37;;;10.97;;
12774;SDS011;6451;42.630;23.382;2024-02-21T03:32:53;13.47;;;11.20;;
12774;SDS011;6451;42.630;23.382;2024-02-21T03:35:20;13.80;;;10.73;;
12774;SDS011;6451;42.630;23.382;2024-02-21T03:37:51;12.37;;;10.57;;
12774;SDS011;6451;42.630;23.382;2024-02-21T03:40:20;13.07;;;11.03;;
12774;SDS011;6451;42.630;23.382;2024-02-21T03:42:47;12.67;;;11.07;;
12774;SDS011;6451;42.630;23.382;2024-02-21T03:45:14;12.53;;;10.93;;
12774;SDS011;6451;42.630;23.382;2024-02-21T03:47:41;13.57;;;11.03;;
12774;SDS011;6451;42.630;23.382;2024-02-21T03:50:12;12.87;;;10.73;;
12774;SDS011;6451;42.630;23.382;2024-02-21T03:52:39;13.10;;;10.90;;
12774;SDS011;6451;42.630;23.382;2024-02-21T03:55:07;13.57;;;10.97;;
12774;SDS011;6451;42.630;23.382;2024-02-21T03:57:35;12.47;;;11.13;;
12774;SDS011;6451;42.630;23.382;2024-02-21T04:00:02;14.50;;;11.93;;
12774;SDS011;6451;42.630;23.382;2024-02-21T04:02:30;14.53;;;12.10;;
12774;SDS011;6451;42.630;23.382;2024-02-21T04:04:57;13.23;;;11.63;;
12774;SDS011;6451;42.630;23.382;2024-02-21T04:07:29;13.30;;;10.97;;
12774;SDS011;6451;42.630;23.382;2024-02-21T04:09:56;15.37;;;11.80;;
12774;SDS011;6451;42.630;23.382;2024-02-21T04:12:31;13.80;;;11.40;;
12774;SDS011;6451;42.630;23.382;2024-02-21T04:15:02;14.00;;;12.13;;
12774;SDS011;6451;42.630;23.382;2024-02-21T04:17:30;14.43;;;11.50;;
12774;SDS011;6451;42.630;23.382;2024-02-21T04:20:01;14.73;;;11.60;;
12774;SDS011;6451;42.630;23.382;2024-02-21T04:22:32;13.33;;;11.33;;
12774;SDS011;6451;42.630;23.382;2024-02-21T04:25:01;15.53;;;12.67;;
12774;SDS011;6451;42.630;23.382;2024-02-21T04:27:28;14.23;;;12.23;;
12774;SDS011;6451;42.630;23.382;2024-02-21T04:29:57;15.70;;;12.10;;
12774;SDS011;6451;42.630;23.382;2024-02-21T04:32:24;13.23;;;11.23;;
12774;SDS011;6451;42.630;23.382;2024-02-21T04:34:52;14.10;;;11.67;;
12774;SDS011;6451;42.630;23.382;2024-02-21T04:37:19;15.03;;;11.37;;
12774;SDS011;6451;42.630;23.382;2024-02-21T04:39:49;15.73;;;12.60;;
12774;SDS011;6451;42.630;23.382;2024-02-21T04:42:16;15.77;;;13.17;;
12774;SDS011;6451;42.630;23.382;2024-02-21T04:44:43;16.80;;;12.53;;
12774;SDS011;6451;42.630;23.382;2024-02-21T04:47:11;17.60;;;13.57;;
12774;SDS011;6451;42.630;23.382;2024-02-21T04:49:38;16.40;;;13.27;;
12774;SDS011;6451;42.630;23.382;2024-02-21T04:52:05;17.93;;;13.60;;
12774;SDS011;6451;42.630;23.382;2024-02-21T04:54:32;16.70;;;13.73;;
12774;SDS011;6451;42.630;23.382;2024-02-21T04:57:04;15.70;;;13.27;;
12774;SDS011;6451;42.630;23.382;2024-02-21T04:59:31;18.00;;;13.53;;
12774;SDS011;6451;42.630;23.382;2024-02-21T05:02:00;16.23;;;13.90;;
12774;SDS011;6451;42.630;23.382;2024-02-21T05:04:27;15.07;;;13.47;;
12774;SDS011;6451;42.630;23.382;2024-02-21T05:06:54;18.50;;;13.87;;
12774;SDS011;6451;42.630;23.382;2024-02-21T05:09:22;15.37;;;13.37;;
12774;SDS011;6451;42.630;23.382;2024-02-21T05:11:49;20.50;;;13.80;;
12774;SDS011;6451;42.630;23.382;2024-02-21T05:14:19;16.37;;;13.93;;
12774;SDS011;6451;42.630;23.382;2024-02-21T05:16:46;15.80;;;13.80;;
12774;SDS011;6451;42.630;23.382;2024-02-21T05:19:14;17.30;;;13.83;;
12774;SDS011;6451;42.630;23.382;2024-02-21T05:21:42;17.80;;;13.90;;
12774;SDS011;6451;42.630;23.382;2024-02-21T05:24:12;16.93;;;13.90;;
12774;SDS011;6451;42.630;23.382;2024-02-21T05:26:46;18.27;;;14.60;;
12774;SDS011;6451;42.630;23.382;2024-02-21T05:29:12;19.57;;;14.37;;
12774;SDS011;6451;42.630;23.382;2024-02-21T05:31:55;15.77;;;13.60;;
12774;SDS011;6451;42.630;23.382;2024-02-21T05:34:26;16.80;;;13.57;;
12774;SDS011;6451;42.630;23.382;2024-02-21T05:36:53;18.40;;;14.50;;
12774;SDS011;6451;42.630;23.382;2024-02-21T05:39:22;17.27;;;14.03;;
12774;SDS011;6451;42.630;23.382;2024-02-21T05:41:49;16.30;;;13.23;;
12774;SDS011;6451;42.630;23.382;2024-02-21T05:44:18;19.70;;;14.00;;
12774;SDS011;6451;42.630;23.382;2024-02-21T05:46:46;17.37;;;14.00;;
12774;SDS011;6451;42.630;23.382;2024-02-21T05:49:14;18.47;;;14.40;;
12774;SDS011;6451;42.630;23.382;2024-02-21T05:51:40;17.10;;;14.27;;
12774;SDS011;6451;42.630;23.382;2024-02-21T05:54:07;18.57;;;13.83;;
12774;SDS011;6451;42.630;23.382;2024-02-21T05:56:34;18.03;;;14.33;;
12774;SDS011;6451;42.630;23.382;2024-02-21T05:59:01;15.37;;;13.07;;
12774;SDS011;6451;42.630;23.382;2024-02-21T06:01:28;16.37;;;12.50;;
12774;SDS011;6451;42.630;23.382;2024-02-21T06:04:00;18.53;;;13.67;;
12774;SDS011;6451;42.630;23.382;2024-02-21T06:06:27;18.80;;;13.23;;
12774;SDS011;6451;42.630;23.382;2024-02-21T06:08:53;16.00;;;12.83;;
12774;SDS011;6451;42.630;23.382;2024-02-21T06:11:21;15.87;;;13.40;;
12774;SDS011;6451;42.630;23.382;2024-02-21T06:13:49;16.07;;;13.17;;
12774;SDS011;6451;42.630;23.382;2024-02-21T06:16:18;19.00;;;14.53;;
12774;SDS011;6451;42.630;23.382;2024-02-21T06:18:45;17.57;;;14.30;;
12774;SDS011;6451;42.630;23.382;2024-02-21T06:21:17;17.60;;;13.60;;
12774;SDS011;6451;42.630;23.382;2024-02-21T06:23:44;16.00;;;13.53;;
12774;SDS011;6451;42.630;23.382;2024-02-21T06:26:11;18.50;;;13.83;;
12774;SDS011;6451;42.630;23.382;2024-02-21T06:28:38;16.93;;;12.90;;
12774;SDS011;6451;42.630;23.382;2024-02-21T06:31:05;16.07;;;13.27;;
12774;SDS011;6451;42.630;23.382;2024-02-21T06:33:33;16.07;;;12.63;;
12774;SDS011;6451;42.630;23.382;2024-02-21T06:36:00;19.73;;;13.30;;
12774;SDS011;6451;42.630;23.382;2024-02-21T06:38:28;18.90;;;13.63;;
12774;SDS011;6451;42.630;23.382;2024-02-21T06:40:55;16.60;;;12.73;;
12774;SDS011;6451;42.630;23.382;2024-02-21T06:43:23;16.93;;;13.20;;
12774;SDS011;6451;42.630;23.382;2024-02-21T06:45:50;17.87;;;13.53;;
12774;SDS011;6451;42.630;23.382;2024-02-21T06:48:17;16.53;;;13.57;;
12774;SDS011;6451;42.630;23.382;2024-02-21T06:50:45;17.47;;;13.40;;
12774;SDS011;6451;42.630;23.382;2024-02-21T06:53:12;18.40;;;14.00;;
12774;SDS011;6451;42.630;23.382;2024-02-21T06:55:40;17.57;;;14.03;;
12774;SDS011;6451;42.630;23.382;2024-02-21T06:58:07;17.87;;;13.87;;
12774;SDS011;6451;42.630;23.382;2024-02-21T07:00:36;15.10;;;12.73;;
12774;SDS011;6451;42.630;23.382;2024-02-21T07:03:05;15.93;;;14.23;;
12774;SDS011;6451;42.630;23.382;2024-02-21T07:05:33;17.57;;;14.47;;
12774;SDS011;6451;42.630;23.382;2024-02-21T07:08:01;18.43;;;14.17;;
12774;SDS011;6451;42.630;23.382;2024-02-21T07:10:28;15.60;;;13.43;;
12774;SDS011;6451;42.630;23.382;2024-02-21T07:12:57;17.47;;;14.33;;
12774;SDS011;6451;42.630;23.382;2024-02-21T07:15:28;16.20;;;14.00;;
12774;SDS011;6451;42.630;23.382;2024-02-21T07:17:56;15.27;;;12.90;;
12774;SDS011;6451;42.630;23.382;2024-02-21T07:20:25;18.13;;;13.63;;
12774;SDS011;6451;42.630;23.382;2024-02-21T07:22:52;17.17;;;13.83;;
12774;SDS011;6451;42.630;23.382;2024-02-21T07:25:19;18.43;;;14.53;;
12774;SDS011;6451;42.630;23.382;2024-02-21T07:27:47;16.70;;;14.33;;
12774;SDS011;6451;42.630;23.382;2024-02-21T07:30:16;17.67;;;14.83;;
12774;SDS011;6451;42.630;23.382;2024-02-21T07:32:45;19.60;;;15.60;;
12774;SDS011;6451;42.630;23.382;2024-02-21T07:35:12;19.27;;;15.40;;
12774;SDS011;6451;42.630;23.382;2024-02-21T07:37:39;22.40;;;16.03;;
12774;SDS011;6451;42.630;23.382;2024-02-21T07:40:15;21.37;;;16.10;;
12774;SDS011;6451;42.630;23.382;2024-02-21T07:42:43;22.30;;;17.20;;
12774;SDS011;6451;42.630;23.382;2024-02-21T07:45:11;21.20;;;17.07;;
12774;SDS011;6451;42.630;23.382;2024-02-21T07:47:39;19.53;;;16.10;;
12774;SDS011;6451;42.630;23.382;2024-02-21T07:50:07;19.37;;;15.87;;
12774;SDS011;6451;42.630;23.382;2024-02-21T07:52:36;19.00;;;15.63;;
12774;SDS011;6451;42.630;23.382;2024-02-21T07:55:03;20.07;;;15.67;;
12774;SDS011;6451;42.630;23.382;2024-02-21T07:57:31;21.03;;;15.60;;
12774;SDS011;6451;42.630;23.382;2024-02-21T08:00:01;19.67;;;15.13;;
12774;SDS011;6451;42.630;23.382;2024-02-21T08:02:29;24.03;;;15.60;;
12774;SDS011;6451;42.630;23.382;2024-02-21T08:04:58;18.27;;;14.77;;
12774;SDS011;6451;42.630;23.382;2024-02-21T08:07:25;20.67;;;15.03;;
12774;SDS011;6451;42.630;23.382;2024-02-21T08:09:54;21.37;;;16.13;;
12774;SDS011;6451;42.630;23.382;2024-02-21T08:12:23;18.47;;;16.10;;
12774;SDS011;6451;42.630;23.382;2024-02-21T08:14:50;20.93;;;15.10;;
12774;SDS011;6451;42.630;23.382;2024-02-21T08:17:17;18.07;;;15.37;;
12774;SDS011;6451;42.630;23.382;2024-02-21T08:19:44;21.20;;;15.73;;
12774;SDS011;6451;42.630;23.382;2024-02-21T08:22:12;19.90;;;15.57;;
12774;SDS011;6451;42.630;23.382;2024-02-21T08:24:40;18.77;;;15.23;;
12774;SDS011;6451;42.630;23.382;2024-02-21T08:27:07;18.83;;;14.97;;
12774;SDS011;6451;42.630;23.382;2024-02-21T08:29:35;16.80;;;14.60;;
12774;SDS011;6451;42.630;23.382;2024-02-21T08:32:02;19.37;;;15.93;;
12774;SDS011;6451;42.630;23.382;2024-02-21T08:34:36;18.90;;;15.13;;
12774;SDS011;6451;42.630;23.382;2024-02-21T08:37:03;21.00;;;15.83;;
12774;SDS011;6451;42.630;23.382;2024-02-21T08:39:32;19.97;;;15.07;;
12774;SDS011;6451;42.630;23.382;2024-02-21T08:41:59;19.97;;;14.70;;
12774;SDS011;6451;42.630;23.382;2024-02-21T08:44:27;17.47;;;13.77;;
12774;SDS011;6451;42.630;23.382;2024-02-21T08:46:55;17.23;;;13.03;;
12774;SDS011;6451;42.630;23.382;2024-02-21T08:49:27;18.30;;;14.30;;
12774;SDS011;6451;42.630;23.382;2024-02-21T08:51:55;20.10;;;14.73;;
12774;SDS011;6451;42.630;23.382;2024-02-21T08:54:23;19.00;;;14.07;;
12774;SDS011;6451;42.630;23.382;2024-02-21T08:56:52;16.13;;;14.43;;
12774;SDS011;6451;42.630;23.382;2024-02-21T08:59:20;16.57;;;13.80;;
12774;SDS011;6451;42.630;23.382;2024-02-21T09:01:47;15.47;;;13.87;;
12774;SDS011;6451;42.630;23.382;2024-02-21T09:04:16;16.10;;;13.73;;
12774;SDS011;6451;42.630;23.382;2024-02-21T09:06:45;15.47;;;13.03;;
12774;SDS011;6451;42.630;23.382;2024-02-21T09:09:13;15.57;;;11.70;;
12774;SDS011;6451;42.630;23.382;2024-02-21T09:11:40;14.83;;;12.17;;
12774;SDS011;6451;42.630;23.382;2024-02-21T09:14:08;15.20;;;13.23;;
12774;SDS011;6451;42.630;23.382;2024-02-21T09:16:35;14.40;;;11.80;;
12774;SDS011;6451;42.630;23.382;2024-02-21T09:19:03;13.33;;;10.10;;
12774;SDS011;6451;42.630;23.382;2024-02-21T09:21:30;12.53;;;9.80;;
12774;SDS011;6451;42.630;23.382;2024-02-21T09:23:57;12.87;;;11.43;;
12774;SDS011;6451;42.630;23.382;2024-02-21T09:26:24;13.73;;;11.20;;
12774;SDS011;6451;42.630;23.382;2024-02-21T09:28:51;12.43;;;10.50;;
12774;SDS011;6451;42.630;23.382;2024-02-21T09:31:19;14.00;;;11.07;;
12774;SDS011;6451;42.630;23.382;2024-02-21T09:33:48;13.90;;;10.47;;
12774;SDS011;6451;42.630;23.382;2024-02-21T09:36:16;12.40;;;10.47;;
12774;SDS011;6451;42.630;23.382;2024-02-21T09:38:44;12.40;;;10.90;;
12774;SDS011;6451;42.630;23.382;2024-02-21T09:41:14;13.03;;;10.37;;
12774;SDS011;6451;42.630;23.382;2024-02-21T09:43:43;16.20;;;12.13;;
12774;SDS011;6451;42.630;23.382;2024-02-21T09:46:13;14.80;;;12.60;;
12774;SDS011;6451;42.630;23.382;2024-02-21T09:48:50;15.53;;;13.03;;
12774;SDS011;6451;42.630;23.382;2024-02-21T09:51:30;16.77;;;13.27;;
12774;SDS011;6451;42.630;23.382;2024-02-21T09:54:01;15.23;;;12.70;;
12774;SDS011;6451;42.630;23.382;2024-02-21T09:56:29;21.87;;;13.70;;
12774;SDS011;6451;42.630;23.382;2024-02-21T09:58:56;13.43;;;12.03;;
12774;SDS011;6451;42.630;23.382;2024-02-21T10:01:29;13.03;;;11.63;;
12774;SDS011;6451;42.630;23.382;2024-02-21T10:03:59;14.37;;;12.40;;
12774;SDS011;6451;42.630;23.382;2024-02-21T10:06:28;15.20;;;12.13;;
12774;SDS011;6451;42.630;23.382;2024-02-21T10:08:55;12.50;;;11.10;;
12774;SDS011;6451;42.630;23.382;2024-02-21T10:11:23;13.53;;;11.30;;
12774;SDS011;6451;42.630;23.382;2024-02-21T10:13:51;11.63;;;10.43;;
12774;SDS011;6451;42.630;23.382;2024-02-21T10:16:28;12.33;;;10.57;;
12774;SDS011;6451;42.630;23.382;2024-02-21T10:18:56;11.17;;;9.90;;
12774;SDS011;6451;42.630;23.382;2024-02-21T10:21:25;11.97;;;9.93;;
12774;SDS011;6451;42.630;23.382;2024-02-21T10:23:52;11.27;;;9.87;;
12774;SDS011;6451;42.630;23.382;2024-02-21T10:26:19;10.83;;;9.73;;
12774;SDS011;6451;42.630;23.382;2024-02-21T10:28:47;11.13;;;9.83;;
12774;SDS011;6451;42.630;23.382;2024-02-21T10:31:23;13.03;;;10.27;;
12774;SDS011;6451;42.630;23.382;2024-02-21T10:33:53;13.17;;;9.30;;
12774;SDS011;6451;42.630;23.382;2024-02-21T10:36:22;10.43;;;9.30;;
12774;SDS011;6451;42.630;23.382;2024-02-21T10:38:51;11.13;;;8.90;;
12774;SDS011;6451;42.630;23.382;2024-02-21T10:41:18;15.60;;;10.53;;
12774;SDS011;6451;42.630;23.382;2024-02-21T10:43:49;12.17;;;10.93;;
12774;SDS011;6451;42.630;23.382;2024-02-21T10:46:18;11.30;;;9.87;;
12774;SDS011;6451;42.630;23.382;2024-02-21T10:48:46;11.73;;;9.90;;
12774;SDS011;6451;42.630;23.382;2024-02-21T10:51:17;12.70;;;10.40;;
12774;SDS011;6451;42.630;23.382;2024-02-21T10:53:47;10.10;;;9.10;;
12774;SDS011;6451;42.630;23.382;2024-02-21T10:56:29;11.10;;;9.20;;
12774;SDS011;6451;42.630;23.382;2024-02-21T10:59:00;12.37;;;9.20;;
12774;SDS011;6451;42.630;23.382;2024-02-21T11:01:32;11.43;;;9.17;;
12774;SDS011;6451;42.630;23.382;2024-02-21T11:04:01;11.20;;;9.40;;
12774;SDS011;6451;42.630;23.382;2024-02-21T11:06:31;8.03;;;7.23;;
12774;SDS011;6451;42.630;23.382;2024-02-21T11:09:02;8.27;;;7.47;;
12774;SDS011;6451;42.630;23.382;2024-02-21T11:11:30;7.90;;;7.10;;
12774;SDS011;6451;42.630;23.382;2024-02-21T11:14:06;7.97;;;7.17;;
12774;SDS011;6451;42.630;23.382;2024-02-21T11:16:35;10.33;;;6.97;;
12774;SDS011;6451;42.630;23.382;2024-02-21T11:19:09;10.17;;;7.23;;
12774;SDS011;6451;42.630;23.382;2024-02-21T11:21:46;7.20;;;6.50;;
12774;SDS011;6451;42.630;23.382;2024-02-21T11:24:26;7.00;;;6.30;;
12774;SDS011;6451;42.630;23.382;2024-02-21T11:26:56;8.67;;;6.20;;
12774;SDS011;6451;42.630;23.382;2024-02-21T11:29:39;7.10;;;6.40;;
12774;SDS011;6451;42.630;23.382;2024-02-21T11:32:09;7.07;;;6.37;;
12774;SDS011;6451;42.630;23.382;2024-02-21T11:34:41;7.27;;;6.57;;
12774;SDS011;6451;42.630;23.382;2024-02-21T11:37:14;7.23;;;6.53;;
12774;SDS011;6451;42.630;23.382;2024-02-21T11:39:46;7.00;;;6.30;;
12774;SDS011;6451;42.630;23.382;2024-02-21T11:42:14;7.43;;;5.73;;
12774;SDS011;6451;42.630;23.382;2024-02-21T11:44:41;6.50;;;5.90;;
12774;SDS011;6451;42.630;23.382;2024-02-21T11:47:09;8.60;;;5.70;;
12774;SDS011;6451;42.630;23.382;2024-02-21T11:49:36;9.00;;;5.40;;
12774;SDS011;6451;42.630;23.382;2024-02-21T11:52:05;6.03;;;5.20;;
12774;SDS011;6451;42.630;23.382;2024-02-21T11:54:34;6.60;;;5.90;;
12774;SDS011;6451;42.630;23.382;2024-02-21T11:57:03;6.10;;;5.50;;
12774;SDS011;6451;42.630;23.382;2024-02-21T11:59:30;5.17;;;4.70;;
12774;SDS011;6451;42.630;23.382;2024-02-21T12:01:58;6.50;;;5.30;;
12774;SDS011;6451;42.630;23.382;2024-02-21T12:04:26;6.40;;;5.07;;
12774;SDS011;6451;42.630;23.382;2024-02-21T12:06:54;6.07;;;4.90;;
12774;SDS011;6451;42.630;23.382;2024-02-21T12:09:22;5.70;;;4.70;;
12774;SDS011;6451;42.630;23.382;2024-02-21T12:11:58;5.77;;;4.97;;
12774;SDS011;6451;42.630;23.382;2024-02-21T12:14:28;6.03;;;4.90;;
12774;SDS011;6451;42.630;23.382;2024-02-21T12:16:59;6.53;;;4.80;;
12774;SDS011;6451;42.630;23.382;2024-02-21T12:19:30;5.37;;;4.80;;
12774;SDS011;6451;42.630;23.382;2024-02-21T12:22:01;5.70;;;5.10;;
12774;SDS011;6451;42.630;23.382;2024-02-21T12:24:31;8.07;;;4.97;;
12774;SDS011;6451;42.630;23.382;2024-02-21T12:26:58;5.60;;;4.70;;
12774;SDS011;6451;42.630;23.382;2024-02-21T12:29:32;5.63;;;4.93;;
12774;SDS011;6451;42.630;23.382;2024-02-21T12:32:01;6.90;;;4.90;;
12774;SDS011;6451;42.630;23.382;2024-02-21T12:34:29;5.77;;;5.17;;
12774;SDS011;6451;42.630;23.382;2024-02-21T12:36:58;5.60;;;5.10;;
12774;SDS011;6451;42.630;23.382;2024-02-21T12:39:28;6.10;;;5.43;;
12774;SDS011;6451;42.630;23.382;2024-02-21T12:41:56;6.93;;;5.53;;
12774;SDS011;6451;42.630;23.382;2024-02-21T12:44:23;7.53;;;5.70;;
12774;SDS011;6451;42.630;23.382;2024-02-21T12:46:53;5.73;;;4.93;;
12774;SDS011;6451;42.630;23.382;2024-02-21T12:49:20;6.60;;;5.17;;
12774;SDS011;6451;42.630;23.382;2024-02-21T12:51:47;7.93;;;5.43;;
12774;SDS011;6451;42.630;23.382;2024-02-21T12:54:14;6.90;;;4.63;;
12774;SDS011;6451;42.630;23.382;2024-02-21T12:56:41;6.60;;;4.80;;
12774;SDS011;6451;42.630;23.382;2024-02-21T12:59:09;7.97;;;5.40;;
12774;SDS011;6451;42.630;23.382;2024-02-21T13:01:36;5.83;;;4.63;;
12774;SDS011;6451;42.630;23.382;2024-02-21T13:04:05;5.80;;;5.20;;
12774;SDS011;6451;42.630;23.382;2024-02-21T13:06:32;6.20;;;5.60;;
12774;SDS011;6451;42.630;23.382;2024-02-21T13:09:02;6.50;;;5.23;;
12774;SDS011;6451;42.630;23.382;2024-02-21T13:11:33;6.00;;;5.40;;
12774;SDS011;6451;42.630;23.382;2024-02-21T13:14:01;6.93;;;6.10;;
12774;SDS011;6451;42.630;23.382;2024-02-21T13:16:30;7.13;;;6.07;;
12774;SDS011;6451;42.630;23.382;2024-02-21T13:18:59;6.10;;;5.50;;
12774;SDS011;6451;42.630;23.382;2024-02-21T13:21:27;6.17;;;5.20;;
12774;SDS011;6451;42.630;23.382;2024-02-21T13:23:54;7.60;;;6.00;;
12774;SDS011;6451;42.630;23.382;2024-02-21T13:26:22;6.80;;;6.10;;
12774;SDS011;6451;42.630;23.382;2024-02-21T13:28:49;7.87;;;6.40;;
12774;SDS011;6451;42.630;23.382;2024-02-21T13:31:15;7.37;;;6.60;;
12774;SDS011;6451;42.630;23.382;2024-02-21T13:33:43;7.40;;;6.53;;
12774;SDS011;6451;42.630;23.382;2024-02-21T13:36:10;8.60;;;6.73;;
12774;SDS011;6451;42.630;23.382;2024-02-21T13:38:39;9.27;;;7.20;;
12774;SDS011;6451;42.630;23.382;2024-02-21T13:41:07;9.20;;;7.87;;
12774;SDS011;6451;42.630;23.382;2024-02-21T13:43:35;10.13;;;7.80;;
12774;SDS011;6451;42.630;23.382;2024-02-21T13:46:02;8.57;;;7.67;;
12774;SDS011;6451;42.630;23.382;2024-02-21T13:48:34;8.67;;;7.60;;
12774;SDS011;6451;42.630;23.382;2024-02-21T13:51:01;8.83;;;7.30;;
12774;SDS011;6451;42.630;23.382;2024-02-21T13:53:33;8.60;;;7.53;;
12774;SDS011;6451;42.630;23.382;2024-02-21T13:56:02;7.17;;;6.47;;
12774;SDS011;6451;42.630;23.382;2024-02-21T13:58:31;6.80;;;6.03;;
12774;SDS011;6451;42.630;23.382;2024-02-21T14:01:02;7.77;;;5.57;;
12774;SDS011;6451;42.630;23.382;2024-02-21T14:03:32;7.07;;;6.00;;
12774;SDS011;6451;42.630;23.382;2024-02-21T14:06:01;8.10;;;6.03;;
12774;SDS011;6451;42.630;23.382;2024-02-21T14:08:39;6.60;;;5.80;;
12774;SDS011;6451;42.630;23.382;2024-02-21T14:11:19;8.97;;;5.90;;
12774;SDS011;6451;42.630;23.382;2024-02-21T14:13:47;7.50;;;5.93;;
12774;SDS011;6451;42.630;23.382;2024-02-21T14:16:16;6.47;;;5.77;;
12774;SDS011;6451;42.630;23.382;2024-02-21T14:18:47;7.97;;;6.40;;
12774;SDS011;6451;42.630;23.382;2024-02-21T14:21:19;8.63;;;7.10;;
12774;SDS011;6451;42.630;23.382;2024-02-21T14:23:47;8.80;;;7.37;;
12774;SDS011;6451;42.630;23.382;2024-02-21T14:26:23;8.03;;;7.13;;
12774;SDS011;6451;42.630;23.382;2024-02-21T14:28:55;10.80;;;7.80;;
12774;SDS011;6451;42.630;23.382;2024-02-21T14:31:28;10.03;;;7.80;;
12774;SDS011;6451;42.630;23.382;2024-02-21T14:33:58;10.73;;;7.17;;
12774;SDS011;6451;42.630;23.382;2024-02-21T14:36:33;8.27;;;7.30;;
12774;SDS011;6451;42.630;23.382;2024-02-21T14:39:02;9.63;;;6.17;;
12774;SDS011;6451;42.630;23.382;2024-02-21T14:41:34;7.30;;;6.40;;